Archival Weather

Heathrow

London, United Kingdom (EGLL)

Report from: Sunday, March 19, 2023 2:20 PM GMT
Current time: Tuesday, July 16, 2024 10:43 AM BST

Current weather – Weather history – Daily summaries
Weather forecast

Temperature10.0°C (50.0°F)
Wind chill8.0°C (46.3°F)
Dew point3.0°C (37.4°F)
Winds 8 kts (4.1 m/s, 9.2 mph) West (270°)
Visibility6.2 mi. (10 km)
Clouds Ceiling: Overcast 3,300 ft. (1,006 m)
Altimeter30.03 in.Hg (1017 mB)
Relative humidity62 %
Density altitude-612 ft. (-187 m)
Remarks Fully automated report
Corrected report
No significant changes expected in the next two hours
Flight conditions Visual Meteorological Conditions
Raw dataCOR EGLL 191420Z AUTO 27008KT 9999 OVC033 10/03 Q1017 NOSIG
An error has occurred. This application may no longer respond until reloaded. Reload 🗙